sensor_id;sensor_type;location;lat;lon;timestamp;P1;durP1;ratioP1;P2;durP2;ratioP2
22160;SDS011;49035;48.812;11.762;2023-04-15T00:01:58;7.53;;;5.60;;
22160;SDS011;49035;48.812;11.762;2023-04-15T00:04:24;8.60;;;5.70;;
22160;SDS011;49035;48.812;11.762;2023-04-15T00:06:51;8.20;;;5.87;;
22160;SDS011;49035;48.812;11.762;2023-04-15T00:09:17;8.67;;;6.30;;
22160;SDS011;49035;48.812;11.762;2023-04-15T00:11:43;9.90;;;6.00;;
22160;SDS011;49035;48.812;11.762;2023-04-15T00:14:11;11.33;;;6.53;;
22160;SDS011;49035;48.812;11.762;2023-04-15T00:16:37;11.90;;;6.70;;
22160;SDS011;49035;48.812;11.762;2023-04-15T00:19:03;10.63;;;6.93;;
22160;SDS011;49035;48.812;11.762;2023-04-15T00:21:28;10.20;;;6.90;;
22160;SDS011;49035;48.812;11.762;2023-04-15T00:23:54;11.57;;;7.37;;
22160;SDS011;49035;48.812;11.762;2023-04-15T00:26:20;8.57;;;6.87;;
22160;SDS011;49035;48.812;11.762;2023-04-15T00:28:46;11.30;;;7.97;;
22160;SDS011;49035;48.812;11.762;2023-04-15T00:31:12;10.50;;;7.23;;
22160;SDS011;49035;48.812;11.762;2023-04-15T00:33:38;9.97;;;6.80;;
22160;SDS011;49035;48.812;11.762;2023-04-15T00:36:05;8.70;;;6.50;;
22160;SDS011;49035;48.812;11.762;2023-04-15T00:38:30;9.90;;;7.07;;
22160;SDS011;49035;48.812;11.762;2023-04-15T00:40:56;9.63;;;7.37;;
22160;SDS011;49035;48.812;11.762;2023-04-15T00:43:22;9.83;;;6.87;;
22160;SDS011;49035;48.812;11.762;2023-04-15T00:45:48;12.37;;;7.87;;
22160;SDS011;49035;48.812;11.762;2023-04-15T00:48:15;10.67;;;6.50;;
22160;SDS011;49035;48.812;11.762;2023-04-15T00:50:41;11.53;;;7.57;;
22160;SDS011;49035;48.812;11.762;2023-04-15T00:53:07;12.90;;;7.57;;
22160;SDS011;49035;48.812;11.762;2023-04-15T00:55:32;10.87;;;7.17;;
22160;SDS011;49035;48.812;11.762;2023-04-15T00:57:58;10.90;;;7.73;;
22160;SDS011;49035;48.812;11.762;2023-04-15T01:00:23;11.30;;;7.30;;
22160;SDS011;49035;48.812;11.762;2023-04-15T01:02:49;17.13;;;8.20;;
22160;SDS011;49035;48.812;11.762;2023-04-15T01:05:15;11.30;;;8.03;;
22160;SDS011;49035;48.812;11.762;2023-04-15T01:07:42;9.27;;;7.33;;
22160;SDS011;49035;48.812;11.762;2023-04-15T01:10:08;11.40;;;7.67;;
22160;SDS011;49035;48.812;11.762;2023-04-15T01:12:34;12.83;;;8.40;;
22160;SDS011;49035;48.812;11.762;2023-04-15T01:15:00;11.67;;;8.30;;
22160;SDS011;49035;48.812;11.762;2023-04-15T01:17:26;12.53;;;9.37;;
22160;SDS011;49035;48.812;11.762;2023-04-15T01:19:52;11.93;;;8.57;;
22160;SDS011;49035;48.812;11.762;2023-04-15T01:22:20;12.33;;;8.63;;
22160;SDS011;49035;48.812;11.762;2023-04-15T01:24:54;14.73;;;8.70;;
22160;SDS011;49035;48.812;11.762;2023-04-15T01:27:26;14.13;;;8.80;;
22160;SDS011;49035;48.812;11.762;2023-04-15T01:29:52;12.50;;;8.77;;
22160;SDS011;49035;48.812;11.762;2023-04-15T01:32:17;12.73;;;9.03;;
22160;SDS011;49035;48.812;11.762;2023-04-15T01:34:43;15.87;;;9.00;;
22160;SDS011;49035;48.812;11.762;2023-04-15T01:37:09;12.03;;;8.80;;
22160;SDS011;49035;48.812;11.762;2023-04-15T01:39:35;17.67;;;9.60;;
22160;SDS011;49035;48.812;11.762;2023-04-15T01:42:01;13.73;;;9.40;;
22160;SDS011;49035;48.812;11.762;2023-04-15T01:44:27;13.30;;;9.37;;
22160;SDS011;49035;48.812;11.762;2023-04-15T01:46:52;15.13;;;9.97;;
22160;SDS011;49035;48.812;11.762;2023-04-15T01:49:18;17.07;;;9.10;;
22160;SDS011;49035;48.812;11.762;2023-04-15T01:51:43;14.53;;;9.17;;
22160;SDS011;49035;48.812;11.762;2023-04-15T01:54:09;13.70;;;9.10;;
22160;SDS011;49035;48.812;11.762;2023-04-15T01:56:35;14.67;;;9.37;;
22160;SDS011;49035;48.812;11.762;2023-04-15T01:59:00;17.23;;;10.30;;
22160;SDS011;49035;48.812;11.762;2023-04-15T02:01:27;13.67;;;9.30;;
22160;SDS011;49035;48.812;11.762;2023-04-15T02:03:53;15.77;;;9.70;;
22160;SDS011;49035;48.812;11.762;2023-04-15T02:06:18;15.80;;;9.90;;
22160;SDS011;49035;48.812;11.762;2023-04-15T02:08:45;13.77;;;10.10;;
22160;SDS011;49035;48.812;11.762;2023-04-15T02:11:10;14.50;;;9.23;;
22160;SDS011;49035;48.812;11.762;2023-04-15T02:13:36;14.53;;;9.60;;
22160;SDS011;49035;48.812;11.762;2023-04-15T02:16:02;15.40;;;9.67;;
22160;SDS011;49035;48.812;11.762;2023-04-15T02:18:27;13.23;;;9.77;;
22160;SDS011;49035;48.812;11.762;2023-04-15T02:20:53;15.90;;;9.80;;
22160;SDS011;49035;48.812;11.762;2023-04-15T02:23:21;15.73;;;10.60;;
22160;SDS011;49035;48.812;11.762;2023-04-15T02:25:46;14.77;;;10.07;;
22160;SDS011;49035;48.812;11.762;2023-04-15T02:28:12;14.47;;;10.03;;
22160;SDS011;49035;48.812;11.762;2023-04-15T02:30:37;14.70;;;9.77;;
22160;SDS011;49035;48.812;11.762;2023-04-15T02:33:04;17.27;;;11.53;;
22160;SDS011;49035;48.812;11.762;2023-04-15T02:35:31;14.67;;;10.00;;
22160;SDS011;49035;48.812;11.762;2023-04-15T02:37:57;15.13;;;10.77;;
22160;SDS011;49035;48.812;11.762;2023-04-15T02:40:22;15.83;;;11.13;;
22160;SDS011;49035;48.812;11.762;2023-04-15T02:42:48;16.00;;;10.83;;
22160;SDS011;49035;48.812;11.762;2023-04-15T02:45:13;14.87;;;10.97;;
22160;SDS011;49035;48.812;11.762;2023-04-15T02:47:39;14.03;;;10.40;;
22160;SDS011;49035;48.812;11.762;2023-04-15T02:50:10;17.50;;;11.30;;
22160;SDS011;49035;48.812;11.762;2023-04-15T02:52:38;13.93;;;10.37;;
22160;SDS011;49035;48.812;11.762;2023-04-15T02:55:05;15.17;;;10.70;;
22160;SDS011;49035;48.812;11.762;2023-04-15T02:57:32;15.47;;;10.50;;
22160;SDS011;49035;48.812;11.762;2023-04-15T02:59:58;16.47;;;10.17;;
22160;SDS011;49035;48.812;11.762;2023-04-15T03:02:24;14.83;;;10.47;;
22160;SDS011;49035;48.812;11.762;2023-04-15T03:04:50;19.33;;;11.27;;
22160;SDS011;49035;48.812;11.762;2023-04-15T03:07:16;16.60;;;10.23;;
22160;SDS011;49035;48.812;11.762;2023-04-15T03:09:42;17.80;;;10.23;;
22160;SDS011;49035;48.812;11.762;2023-04-15T03:12:08;14.67;;;9.90;;
22160;SDS011;49035;48.812;11.762;2023-04-15T03:14:34;14.23;;;10.23;;
22160;SDS011;49035;48.812;11.762;2023-04-15T03:16:59;14.37;;;9.87;;
22160;SDS011;49035;48.812;11.762;2023-04-15T03:19:25;15.30;;;10.63;;
22160;SDS011;49035;48.812;11.762;2023-04-15T03:21:51;12.80;;;9.37;;
22160;SDS011;49035;48.812;11.762;2023-04-15T03:24:17;13.70;;;9.87;;
22160;SDS011;49035;48.812;11.762;2023-04-15T03:26:42;16.03;;;10.53;;
22160;SDS011;49035;48.812;11.762;2023-04-15T03:29:08;14.73;;;10.03;;
22160;SDS011;49035;48.812;11.762;2023-04-15T03:31:34;13.60;;;9.77;;
22160;SDS011;49035;48.812;11.762;2023-04-15T03:34:00;13.00;;;9.30;;
22160;SDS011;49035;48.812;11.762;2023-04-15T03:36:27;14.93;;;9.93;;
22160;SDS011;49035;48.812;11.762;2023-04-15T03:38:55;11.60;;;9.13;;
22160;SDS011;49035;48.812;11.762;2023-04-15T03:41:21;12.37;;;9.13;;
22160;SDS011;49035;48.812;11.762;2023-04-15T03:43:47;15.97;;;8.80;;
22160;SDS011;49035;48.812;11.762;2023-04-15T03:46:13;15.03;;;8.90;;
22160;SDS011;49035;48.812;11.762;2023-04-15T03:48:38;11.53;;;8.80;;
22160;SDS011;49035;48.812;11.762;2023-04-15T03:51:04;13.47;;;9.60;;
22160;SDS011;49035;48.812;11.762;2023-04-15T03:53:29;12.30;;;8.93;;
22160;SDS011;49035;48.812;11.762;2023-04-15T03:55:55;14.13;;;9.43;;
22160;SDS011;49035;48.812;11.762;2023-04-15T03:58:21;13.97;;;9.47;;
22160;SDS011;49035;48.812;11.762;2023-04-15T04:00:46;11.73;;;8.87;;
22160;SDS011;49035;48.812;11.762;2023-04-15T04:03:12;15.03;;;10.13;;
22160;SDS011;49035;48.812;11.762;2023-04-15T04:05:37;13.13;;;8.80;;
22160;SDS011;49035;48.812;11.762;2023-04-15T04:08:05;11.73;;;8.90;;
22160;SDS011;49035;48.812;11.762;2023-04-15T04:10:31;12.60;;;8.50;;
22160;SDS011;49035;48.812;11.762;2023-04-15T04:12:56;11.60;;;8.73;;
22160;SDS011;49035;48.812;11.762;2023-04-15T04:15:22;12.07;;;8.50;;
22160;SDS011;49035;48.812;11.762;2023-04-15T04:17:47;10.50;;;8.20;;
22160;SDS011;49035;48.812;11.762;2023-04-15T04:20:13;11.23;;;8.57;;
22160;SDS011;49035;48.812;11.762;2023-04-15T04:22:38;11.90;;;8.50;;
22160;SDS011;49035;48.812;11.762;2023-04-15T04:25:05;14.60;;;9.23;;
22160;SDS011;49035;48.812;11.762;2023-04-15T04:27:32;12.33;;;8.10;;
22160;SDS011;49035;48.812;11.762;2023-04-15T04:29:58;13.30;;;8.97;;
22160;SDS011;49035;48.812;11.762;2023-04-15T04:32:24;12.40;;;8.80;;
22160;SDS011;49035;48.812;11.762;2023-04-15T04:34:50;13.23;;;9.03;;
22160;SDS011;49035;48.812;11.762;2023-04-15T04:37:15;13.67;;;9.00;;
22160;SDS011;49035;48.812;11.762;2023-04-15T04:39:41;13.13;;;8.90;;
22160;SDS011;49035;48.812;11.762;2023-04-15T04:42:06;13.13;;;9.63;;
22160;SDS011;49035;48.812;11.762;2023-04-15T04:44:32;12.30;;;8.63;;
22160;SDS011;49035;48.812;11.762;2023-04-15T04:46:57;12.53;;;8.93;;
22160;SDS011;49035;48.812;11.762;2023-04-15T04:49:23;15.40;;;9.43;;
22160;SDS011;49035;48.812;11.762;2023-04-15T04:51:48;14.00;;;8.83;;
22160;SDS011;49035;48.812;11.762;2023-04-15T04:54:14;16.70;;;8.83;;
22160;SDS011;49035;48.812;11.762;2023-04-15T04:56:41;12.13;;;9.50;;
22160;SDS011;49035;48.812;11.762;2023-04-15T04:59:06;12.73;;;9.50;;
22160;SDS011;49035;48.812;11.762;2023-04-15T05:01:32;13.80;;;9.20;;
22160;SDS011;49035;48.812;11.762;2023-04-15T05:03:58;14.90;;;10.03;;
22160;SDS011;49035;48.812;11.762;2023-04-15T05:06:24;15.10;;;9.63;;
22160;SDS011;49035;48.812;11.762;2023-04-15T05:08:50;16.33;;;9.67;;
22160;SDS011;49035;48.812;11.762;2023-04-15T05:11:16;16.40;;;9.50;;
22160;SDS011;49035;48.812;11.762;2023-04-15T05:13:41;15.60;;;9.57;;
22160;SDS011;49035;48.812;11.762;2023-04-15T05:16:07;11.87;;;8.87;;
22160;SDS011;49035;48.812;11.762;2023-04-15T05:18:33;14.17;;;10.20;;
22160;SDS011;49035;48.812;11.762;2023-04-15T05:20:59;13.60;;;9.17;;
22160;SDS011;49035;48.812;11.762;2023-04-15T05:23:24;14.30;;;9.40;;
22160;SDS011;49035;48.812;11.762;2023-04-15T05:25:51;13.57;;;9.03;;
22160;SDS011;49035;48.812;11.762;2023-04-15T05:28:16;14.00;;;10.10;;
22160;SDS011;49035;48.812;11.762;2023-04-15T05:30:42;16.57;;;9.50;;
22160;SDS011;49035;48.812;11.762;2023-04-15T05:33:07;13.13;;;9.60;;
22160;SDS011;49035;48.812;11.762;2023-04-15T05:35:33;15.93;;;9.47;;
22160;SDS011;49035;48.812;11.762;2023-04-15T05:37:58;14.97;;;9.70;;
22160;SDS011;49035;48.812;11.762;2023-04-15T05:40:24;16.37;;;9.57;;
22160;SDS011;49035;48.812;11.762;2023-04-15T05:42:50;13.17;;;9.90;;
22160;SDS011;49035;48.812;11.762;2023-04-15T05:45:16;15.77;;;9.93;;
22160;SDS011;49035;48.812;11.762;2023-04-15T05:47:41;15.80;;;9.90;;
22160;SDS011;49035;48.812;11.762;2023-04-15T05:50:07;14.77;;;9.50;;
22160;SDS011;49035;48.812;11.762;2023-04-15T05:52:33;14.57;;;9.73;;
22160;SDS011;49035;48.812;11.762;2023-04-15T05:54:59;13.43;;;8.93;;
22160;SDS011;49035;48.812;11.762;2023-04-15T05:57:24;16.30;;;9.90;;
22160;SDS011;49035;48.812;11.762;2023-04-15T05:59:50;15.03;;;11.13;;
22160;SDS011;49035;48.812;11.762;2023-04-15T06:02:16;14.33;;;9.97;;
22160;SDS011;49035;48.812;11.762;2023-04-15T06:04:42;13.83;;;9.63;;
22160;SDS011;49035;48.812;11.762;2023-04-15T06:07:08;15.27;;;9.67;;
22160;SDS011;49035;48.812;11.762;2023-04-15T06:09:33;13.13;;;9.30;;
22160;SDS011;49035;48.812;11.762;2023-04-15T06:12:00;14.23;;;9.93;;
22160;SDS011;49035;48.812;11.762;2023-04-15T06:14:26;15.73;;;9.90;;
22160;SDS011;49035;48.812;11.762;2023-04-15T06:16:52;15.03;;;10.70;;
22160;SDS011;49035;48.812;11.762;2023-04-15T06:19:17;15.13;;;10.37;;
22160;SDS011;49035;48.812;11.762;2023-04-15T06:21:43;15.00;;;10.50;;
22160;SDS011;49035;48.812;11.762;2023-04-15T06:24:10;19.30;;;9.83;;
22160;SDS011;49035;48.812;11.762;2023-04-15T06:26:35;12.90;;;9.70;;
22160;SDS011;49035;48.812;11.762;2023-04-15T06:29:01;13.00;;;9.40;;
22160;SDS011;49035;48.812;11.762;2023-04-15T06:31:27;13.43;;;8.83;;
22160;SDS011;49035;48.812;11.762;2023-04-15T06:33:52;12.40;;;8.77;;
22160;SDS011;49035;48.812;11.762;2023-04-15T06:36:18;12.53;;;9.10;;
22160;SDS011;49035;48.812;11.762;2023-04-15T06:38:44;12.10;;;9.20;;
22160;SDS011;49035;48.812;11.762;2023-04-15T06:41:09;14.97;;;8.80;;
22160;SDS011;49035;48.812;11.762;2023-04-15T06:43:35;11.90;;;8.13;;
22160;SDS011;49035;48.812;11.762;2023-04-15T06:46:01;12.90;;;8.00;;
22160;SDS011;49035;48.812;11.762;2023-04-15T06:48:26;12.10;;;8.10;;
22160;SDS011;49035;48.812;11.762;2023-04-15T06:50:52;12.13;;;8.43;;
22160;SDS011;49035;48.812;11.762;2023-04-15T06:53:17;13.67;;;8.40;;
22160;SDS011;49035;48.812;11.762;2023-04-15T06:55:43;10.53;;;8.10;;
22160;SDS011;49035;48.812;11.762;2023-04-15T06:58:08;10.00;;;7.63;;
22160;SDS011;49035;48.812;11.762;2023-04-15T07:00:34;9.30;;;7.33;;
22160;SDS011;49035;48.812;11.762;2023-04-15T07:03:02;10.77;;;7.47;;
22160;SDS011;49035;48.812;11.762;2023-04-15T07:05:29;11.33;;;7.03;;
22160;SDS011;49035;48.812;11.762;2023-04-15T07:07:55;12.10;;;7.67;;
22160;SDS011;49035;48.812;11.762;2023-04-15T07:10:21;12.73;;;7.63;;
22160;SDS011;49035;48.812;11.762;2023-04-15T07:12:47;10.70;;;7.27;;
22160;SDS011;49035;48.812;11.762;2023-04-15T07:15:12;9.43;;;7.30;;
22160;SDS011;49035;48.812;11.762;2023-04-15T07:17:39;10.03;;;6.83;;
22160;SDS011;49035;48.812;11.762;2023-04-15T07:20:06;8.90;;;6.70;;
22160;SDS011;49035;48.812;11.762;2023-04-15T07:22:32;11.20;;;6.57;;
22160;SDS011;49035;48.812;11.762;2023-04-15T07:24:58;8.97;;;6.30;;
22160;SDS011;49035;48.812;11.762;2023-04-15T07:27:23;8.30;;;5.90;;
22160;SDS011;49035;48.812;11.762;2023-04-15T07:29:49;7.90;;;6.43;;
22160;SDS011;49035;48.812;11.762;2023-04-15T07:32:16;9.27;;;6.83;;
22160;SDS011;49035;48.812;11.762;2023-04-15T07:34:41;9.33;;;6.50;;
22160;SDS011;49035;48.812;11.762;2023-04-15T07:37:08;9.57;;;6.53;;
22160;SDS011;49035;48.812;11.762;2023-04-15T07:39:34;11.03;;;6.03;;
22160;SDS011;49035;48.812;11.762;2023-04-15T07:41:59;8.47;;;6.40;;
22160;SDS011;49035;48.812;11.762;2023-04-15T07:44:26;9.00;;;6.00;;
22160;SDS011;49035;48.812;11.762;2023-04-15T07:46:51;7.93;;;5.93;;
22160;SDS011;49035;48.812;11.762;2023-04-15T07:49:17;9.93;;;6.30;;
22160;SDS011;49035;48.812;11.762;2023-04-15T07:51:46;8.33;;;6.47;;
22160;SDS011;49035;48.812;11.762;2023-04-15T07:54:13;8.63;;;5.57;;
22160;SDS011;49035;48.812;11.762;2023-04-15T07:56:39;7.03;;;5.40;;
22160;SDS011;49035;48.812;11.762;2023-04-15T07:59:05;7.43;;;5.80;;
22160;SDS011;49035;48.812;11.762;2023-04-15T08:01:31;5.93;;;4.93;;
22160;SDS011;49035;48.812;11.762;2023-04-15T08:03:57;7.83;;;5.60;;
22160;SDS011;49035;48.812;11.762;2023-04-15T08:06:23;8.97;;;5.77;;
22160;SDS011;49035;48.812;11.762;2023-04-15T08:08:48;6.93;;;5.20;;
22160;SDS011;49035;48.812;11.762;2023-04-15T08:11:14;8.17;;;5.67;;
22160;SDS011;49035;48.812;11.762;2023-04-15T08:13:40;6.37;;;5.07;;
22160;SDS011;49035;48.812;11.762;2023-04-15T08:16:19;6.30;;;5.10;;
22160;SDS011;49035;48.812;11.762;2023-04-15T08:18:49;6.37;;;4.90;;
22160;SDS011;49035;48.812;11.762;2023-04-15T08:21:17;7.93;;;4.87;;
22160;SDS011;49035;48.812;11.762;2023-04-15T08:23:44;5.80;;;4.37;;
22160;SDS011;49035;48.812;11.762;2023-04-15T08:26:10;5.63;;;4.07;;
22160;SDS011;49035;48.812;11.762;2023-04-15T08:28:37;5.97;;;4.60;;
22160;SDS011;49035;48.812;11.762;2023-04-15T08:31:03;4.40;;;3.90;;
22160;SDS011;49035;48.812;11.762;2023-04-15T08:33:29;5.07;;;4.20;;
22160;SDS011;49035;48.812;11.762;2023-04-15T08:35:54;5.10;;;4.37;;
22160;SDS011;49035;48.812;11.762;2023-04-15T08:38:20;7.13;;;4.80;;
22160;SDS011;49035;48.812;11.762;2023-04-15T08:40:46;5.00;;;3.70;;
22160;SDS011;49035;48.812;11.762;2023-04-15T08:43:14;6.60;;;4.17;;
22160;SDS011;49035;48.812;11.762;2023-04-15T08:45:44;5.80;;;4.30;;
22160;SDS011;49035;48.812;11.762;2023-04-15T08:48:12;6.60;;;4.63;;
22160;SDS011;49035;48.812;11.762;2023-04-15T08:50:40;4.90;;;4.07;;
22160;SDS011;49035;48.812;11.762;2023-04-15T08:53:06;6.63;;;4.47;;
22160;SDS011;49035;48.812;11.762;2023-04-15T08:55:33;6.53;;;4.53;;
22160;SDS011;49035;48.812;11.762;2023-04-15T08:58:00;7.50;;;4.50;;
22160;SDS011;49035;48.812;11.762;2023-04-15T09:00:27;6.10;;;4.77;;
22160;SDS011;49035;48.812;11.762;2023-04-15T09:02:54;5.40;;;4.33;;
22160;SDS011;49035;48.812;11.762;2023-04-15T09:05:20;6.67;;;4.40;;
22160;SDS011;49035;48.812;11.762;2023-04-15T09:07:47;7.30;;;4.60;;
22160;SDS011;49035;48.812;11.762;2023-04-15T09:10:14;8.00;;;4.97;;
22160;SDS011;49035;48.812;11.762;2023-04-15T09:12:40;8.10;;;5.00;;
22160;SDS011;49035;48.812;11.762;2023-04-15T09:15:05;7.20;;;4.97;;
22160;SDS011;49035;48.812;11.762;2023-04-15T09:17:36;7.37;;;4.60;;
22160;SDS011;49035;48.812;11.762;2023-04-15T09:20:10;6.30;;;4.27;;
22160;SDS011;49035;48.812;11.762;2023-04-15T09:22:38;5.60;;;4.23;;
22160;SDS011;49035;48.812;11.762;2023-04-15T09:27:52;5.50;;;4.50;;
22160;SDS011;49035;48.812;11.762;2023-04-15T09:30:23;6.00;;;4.80;;
22160;SDS011;49035;48.812;11.762;2023-04-15T09:32:52;6.40;;;4.73;;
22160;SDS011;49035;48.812;11.762;2023-04-15T09:35:35;6.27;;;4.73;;
22160;SDS011;49035;48.812;11.762;2023-04-15T09:38:02;6.80;;;4.87;;
22160;SDS011;49035;48.812;11.762;2023-04-15T09:40:39;7.47;;;5.13;;
22160;SDS011;49035;48.812;11.762;2023-04-15T09:43:06;6.60;;;4.80;;
22160;SDS011;49035;48.812;11.762;2023-04-15T09:45:34;7.50;;;4.40;;
22160;SDS011;49035;48.812;11.762;2023-04-15T09:48:19;6.37;;;4.57;;
22160;SDS011;49035;48.812;11.762;2023-04-15T09:50:47;6.50;;;4.10;;
22160;SDS011;49035;48.812;11.762;2023-04-15T09:53:20;8.20;;;5.10;;
22160;SDS011;49035;48.812;11.762;2023-04-15T09:55:50;6.33;;;4.23;;
22160;SDS011;49035;48.812;11.762;2023-04-15T09:58:18;9.67;;;5.00;;
22160;SDS011;49035;48.812;11.762;2023-04-15T10:00:47;5.53;;;4.20;;
22160;SDS011;49035;48.812;11.762;2023-04-15T10:03:24;5.63;;;4.03;;
22160;SDS011;49035;48.812;11.762;2023-04-15T10:05:52;4.63;;;4.03;;
22160;SDS011;49035;48.812;11.762;2023-04-15T10:08:20;7.30;;;4.20;;
22160;SDS011;49035;48.812;11.762;2023-04-15T10:10:48;6.10;;;4.37;;
22160;SDS011;49035;48.812;11.762;2023-04-15T10:13:19;5.43;;;4.05;;
22160;SDS011;49035;48.812;11.762;2023-04-15T10:15:59;5.70;;;3.67;;
22160;SDS011;49035;48.812;11.762;2023-04-15T10:18:36;5.40;;;4.43;;
22160;SDS011;49035;48.812;11.762;2023-04-15T10:21:05;5.43;;;3.67;;
22160;SDS011;49035;48.812;11.762;2023-04-15T10:23:32;4.65;;;3.60;;
22160;SDS011;49035;48.812;11.762;2023-04-15T10:25:58;4.10;;;3.63;;
22160;SDS011;49035;48.812;11.762;2023-04-15T10:28:24;4.67;;;3.90;;
22160;SDS011;49035;48.812;11.762;2023-04-15T10:30:51;4.75;;;4.00;;
22160;SDS011;49035;48.812;11.762;2023-04-15T10:33:18;5.10;;;3.83;;
22160;SDS011;49035;48.812;11.762;2023-04-15T10:35:46;5.47;;;4.05;;
22160;SDS011;49035;48.812;11.762;2023-04-15T10:40:54;7.30;;;3.67;;
22160;SDS011;49035;48.812;11.762;2023-04-15T10:46:36;4.87;;;3.10;;
22160;SDS011;49035;48.812;11.762;2023-04-15T10:51:40;4.20;;;3.10;;
22160;SDS011;49035;48.812;11.762;2023-04-15T10:57:13;3.20;;;2.90;;
22160;SDS011;49035;48.812;11.762;2023-04-15T11:05:49;2.73;;;2.53;;
22160;SDS011;49035;48.812;11.762;2023-04-15T11:08:16;3.07;;;2.73;;
22160;SDS011;49035;48.812;11.762;2023-04-15T11:15:34;2.63;;;2.33;;
22160;SDS011;49035;48.812;11.762;2023-04-15T11:20:42;3.17;;;2.50;;
22160;SDS011;49035;48.812;11.762;2023-04-15T11:23:09;3.23;;;2.70;;
22160;SDS011;49035;48.812;11.762;2023-04-15T11:25:35;2.88;;;2.50;;
22160;SDS011;49035;48.812;11.762;2023-04-15T11:28:04;3.53;;;2.30;;
22160;SDS011;49035;48.812;11.762;2023-04-15T11:30:32;2.30;;;2.10;;
22160;SDS011;49035;48.812;11.762;2023-04-15T11:33:00;2.63;;;2.33;;
22160;SDS011;49035;48.812;11.762;2023-04-15T11:35:27;4.13;;;2.20;;
22160;SDS011;49035;48.812;11.762;2023-04-15T11:37:53;2.97;;;2.58;;
22160;SDS011;49035;48.812;11.762;2023-04-15T11:40:23;5.20;;;2.30;;
22160;SDS011;49035;48.812;11.762;2023-04-15T11:43:10;4.13;;;2.17;;
22160;SDS011;49035;48.812;11.762;2023-04-15T11:45:36;2.47;;;2.10;;
22160;SDS011;49035;48.812;11.762;2023-04-15T11:48:15;2.90;;;2.40;;
22160;SDS011;49035;48.812;11.762;2023-04-15T11:50:41;2.63;;;2.10;;
22160;SDS011;49035;48.812;11.762;2023-04-15T11:53:07;2.43;;;2.23;;
22160;SDS011;49035;48.812;11.762;2023-04-15T11:56:07;2.22;;;2.00;;
22160;SDS011;49035;48.812;11.762;2023-04-15T11:58:28;3.23;;;2.10;;
22160;SDS011;49035;48.812;11.762;2023-04-15T12:00:57;3.53;;;1.90;;
22160;SDS011;49035;48.812;11.762;2023-04-15T12:06:06;2.70;;;1.87;;
22160;SDS011;49035;48.812;11.762;2023-04-15T12:11:17;3.53;;;1.50;;
22160;SDS011;49035;48.812;11.762;2023-04-15T12:14:11;2.43;;;1.70;;
22160;SDS011;49035;48.812;11.762;2023-04-15T12:16:51;1.67;;;1.50;;
22160;SDS011;49035;48.812;11.762;2023-04-15T12:19:34;1.53;;;1.43;;
22160;SDS011;49035;48.812;11.762;2023-04-15T12:22:02;2.43;;;1.60;;
22160;SDS011;49035;48.812;11.762;2023-04-15T12:24:31;3.22;;;1.50;;
22160;SDS011;49035;48.812;11.762;2023-04-15T12:27:00;2.43;;;1.67;;
22160;SDS011;49035;48.812;11.762;2023-04-15T12:29:35;1.73;;;1.53;;
22160;SDS011;49035;48.812;11.762;2023-04-15T12:32:06;1.97;;;1.73;;
22160;SDS011;49035;48.812;11.762;2023-04-15T12:34:34;2.60;;;1.90;;
22160;SDS011;49035;48.812;11.762;2023-04-15T12:37:01;2.20;;;1.70;;
22160;SDS011;49035;48.812;11.762;2023-04-15T12:39:29;2.07;;;1.70;;
22160;SDS011;49035;48.812;11.762;2023-04-15T12:41:56;1.30;;;1.20;;
22160;SDS011;49035;48.812;11.762;2023-04-15T12:44:25;2.20;;;1.70;;
22160;SDS011;49035;48.812;11.762;2023-04-15T12:46:51;2.43;;;1.50;;
22160;SDS011;49035;48.812;11.762;2023-04-15T12:49:17;1.50;;;1.40;;
22160;SDS011;49035;48.812;11.762;2023-04-15T12:51:45;2.77;;;1.53;;
22160;SDS011;49035;48.812;11.762;2023-04-15T12:54:12;2.00;;;1.50;;
22160;SDS011;49035;48.812;11.762;2023-04-15T12:56:38;2.90;;;1.50;;
22160;SDS011;49035;48.812;11.762;2023-04-15T12:59:03;1.47;;;1.37;;
22160;SDS011;49035;48.812;11.762;2023-04-15T13:01:29;1.70;;;1.50;;
22160;SDS011;49035;48.812;11.762;2023-04-15T13:03:55;1.92;;;1.55;;
22160;SDS011;49035;48.812;11.762;2023-04-15T13:06:21;1.75;;;1.40;;
22160;SDS011;49035;48.812;11.762;2023-04-15T13:08:48;4.63;;;1.92;;
22160;SDS011;49035;48.812;11.762;2023-04-15T13:11:13;3.65;;;2.03;;
22160;SDS011;49035;48.812;11.762;2023-04-15T13:13:39;1.80;;;1.60;;
22160;SDS011;49035;48.812;11.762;2023-04-15T13:16:05;2.72;;;1.73;;
22160;SDS011;49035;48.812;11.762;2023-04-15T13:18:30;2.33;;;1.60;;
22160;SDS011;49035;48.812;11.762;2023-04-15T13:20:58;2.73;;;1.63;;
22160;SDS011;49035;48.812;11.762;2023-04-15T13:23:24;1.60;;;1.50;;
22160;SDS011;49035;48.812;11.762;2023-04-15T13:25:50;2.40;;;1.83;;
22160;SDS011;49035;48.812;11.762;2023-04-15T13:28:16;2.53;;;1.70;;
22160;SDS011;49035;48.812;11.762;2023-04-15T13:30:41;2.23;;;1.80;;
22160;SDS011;49035;48.812;11.762;2023-04-15T13:33:08;2.97;;;1.60;;
22160;SDS011;49035;48.812;11.762;2023-04-15T13:35:33;1.87;;;1.70;;
22160;SDS011;49035;48.812;11.762;2023-04-15T13:37:59;1.93;;;1.70;;
22160;SDS011;49035;48.812;11.762;2023-04-15T13:40:25;2.00;;;1.80;;
22160;SDS011;49035;48.812;11.762;2023-04-15T13:42:51;2.87;;;1.40;;
22160;SDS011;49035;48.812;11.762;2023-04-15T13:45:17;1.63;;;1.53;;
22160;SDS011;49035;48.812;11.762;2023-04-15T13:47:43;2.80;;;1.80;;
22160;SDS011;49035;48.812;11.762;2023-04-15T13:50:09;2.03;;;1.63;;
22160;SDS011;49035;48.812;11.762;2023-04-15T13:52:35;1.73;;;1.60;;
22160;SDS011;49035;48.812;11.762;2023-04-15T13:55:01;2.00;;;1.70;;
22160;SDS011;49035;48.812;11.762;2023-04-15T13:57:27;2.90;;;1.60;;
22160;SDS011;49035;48.812;11.762;2023-04-15T13:59:53;1.90;;;1.70;;
22160;SDS011;49035;48.812;11.762;2023-04-15T14:02:19;2.10;;;1.40;;
22160;SDS011;49035;48.812;11.762;2023-04-15T14:04:45;1.97;;;1.77;;
22160;SDS011;49035;48.812;11.762;2023-04-15T14:07:11;2.38;;;1.50;;
22160;SDS011;49035;48.812;11.762;2023-04-15T14:09:36;2.05;;;1.60;;
22160;SDS011;49035;48.812;11.762;2023-04-15T14:12:02;2.13;;;1.23;;
22160;SDS011;49035;48.812;11.762;2023-04-15T14:14:28;1.83;;;1.30;;
22160;SDS011;49035;48.812;11.762;2023-04-15T14:16:54;1.55;;;1.42;;
22160;SDS011;49035;48.812;11.762;2023-04-15T14:19:20;1.60;;;1.50;;
22160;SDS011;49035;48.812;11.762;2023-04-15T14:21:46;1.75;;;1.35;;
22160;SDS011;49035;48.812;11.762;2023-04-15T14:24:11;3.67;;;1.70;;
22160;SDS011;49035;48.812;11.762;2023-04-15T14:26:37;1.48;;;1.38;;
22160;SDS011;49035;48.812;11.762;2023-04-15T14:29:02;1.40;;;1.27;;
22160;SDS011;49035;48.812;11.762;2023-04-15T14:31:28;4.37;;;1.57;;
22160;SDS011;49035;48.812;11.762;2023-04-15T14:33:55;1.50;;;1.40;;
22160;SDS011;49035;48.812;11.762;2023-04-15T14:36:20;1.40;;;1.27;;
22160;SDS011;49035;48.812;11.762;2023-04-15T14:38:46;1.40;;;1.30;;
22160;SDS011;49035;48.812;11.762;2023-04-15T14:41:11;1.67;;;1.40;;
22160;SDS011;49035;48.812;11.762;2023-04-15T14:43:37;2.57;;;1.80;;
22160;SDS011;49035;48.812;11.762;2023-04-15T14:46:03;2.23;;;1.50;;
22160;SDS011;49035;48.812;11.762;2023-04-15T14:48:29;1.90;;;1.80;;
22160;SDS011;49035;48.812;11.762;2023-04-15T14:50:55;1.77;;;1.67;;
22160;SDS011;49035;48.812;11.762;2023-04-15T14:53:21;1.97;;;1.77;;
22160;SDS011;49035;48.812;11.762;2023-04-15T14:55:46;3.17;;;2.13;;
22160;SDS011;49035;48.812;11.762;2023-04-15T14:58:12;2.23;;;1.90;;